Etusivu
METAR-TAF:

METAR-TAF

Lentoasemat :

Oak Ridge, Tennessee, Yhdysvallat

Leveyspiiri: 36-01-22N, Pituuspiiri: 084-14W, korkeus merenpinnasta: 279 m

Tämänhetkinen sää

Tämä raportti tehtiin 14 minuuttia sitten, kello 02.53 UTC
Tuuli 3 kn eri suunnista
Lämpötila 14°C
Kosteus 51%
Ilmanpaine 1019 hPa
Näkyvyys: 8.0 km
Hajonneita pilviä 4300 ft:n korkeudessa
usvaa

METAR: KOQT 180253Z AUTO VRB03KT 5SM HZ BKN043 14/04 A3008 RMK AO2 SLP189 T01440039 53010

Aika: 22:07 (03:07 UTC)


TAF: puuttuu

Säähavainnot ja -ennusteet yli 4000 lentoasemalta (METAR- ja TAF-raportit).

Käytössä olevat sääasemat on merkitty karttaan keltaisilla ja punaisilla pisteillä.

Aseta hiiri pisteen päälle nähdäksesi sääaseman nimen.

Klikkaa sitten nähdäksesi säähavainnot ja -ennusteet.

Kartan vaihtaminen: klikkaa mustalla rastilla varustettuja vihreitä pisteitä, niin voit zoomata sisään; viivalla varustettua vihreää pistettä, niin voit zoomata ulos tai vihreitä nuolia, niin pääset viereisille kartoille.


METAR-TAF: